sensor_id;sensor_type;location;lat;lon;timestamp;P1;durP1;ratioP1;P2;durP2;ratioP2
9388;SDS011;4734;52.778;6.798;2022-12-29T00:01:40;10.30;;;7.10;;
9388;SDS011;4734;52.778;6.798;2022-12-29T00:04:26;7.63;;;6.50;;
9388;SDS011;4734;52.778;6.798;2022-12-29T00:07:14;8.07;;;7.27;;
9388;SDS011;4734;52.778;6.798;2022-12-29T00:09:59;7.70;;;7.00;;
9388;SDS011;4734;52.778;6.798;2022-12-29T00:12:45;7.63;;;6.90;;
9388;SDS011;4734;52.778;6.798;2022-12-29T00:15:48;7.33;;;6.43;;
9388;SDS011;4734;52.778;6.798;2022-12-29T00:18:34;8.37;;;5.97;;
9388;SDS011;4734;52.778;6.798;2022-12-29T00:21:21;7.47;;;6.57;;
9388;SDS011;4734;52.778;6.798;2022-12-29T00:24:26;9.07;;;6.77;;
9388;SDS011;4734;52.778;6.798;2022-12-29T00:27:30;9.43;;;6.40;;
9388;SDS011;4734;52.778;6.798;2022-12-29T00:30:33;7.17;;;6.33;;
9388;SDS011;4734;52.778;6.798;2022-12-29T00:33:38;8.13;;;6.80;;
9388;SDS011;4734;52.778;6.798;2022-12-29T00:36:42;8.73;;;6.97;;
9388;SDS011;4734;52.778;6.798;2022-12-29T00:39:30;7.70;;;6.50;;
9388;SDS011;4734;52.778;6.798;2022-12-29T00:42:33;7.87;;;6.73;;
9388;SDS011;4734;52.778;6.798;2022-12-29T00:45:36;8.93;;;5.93;;
9388;SDS011;4734;52.778;6.798;2022-12-29T00:48:21;7.57;;;6.40;;
9388;SDS011;4734;52.778;6.798;2022-12-29T00:51:21;6.77;;;6.07;;
9388;SDS011;4734;52.778;6.798;2022-12-29T00:54:07;8.53;;;6.73;;
9388;SDS011;4734;52.778;6.798;2022-12-29T00:56:54;6.87;;;6.17;;
9388;SDS011;4734;52.778;6.798;2022-12-29T00:59:41;6.00;;;5.13;;
9388;SDS011;4734;52.778;6.798;2022-12-29T01:02:26;6.83;;;6.03;;
9388;SDS011;4734;52.778;6.798;2022-12-29T01:05:13;6.65;;;6.05;;
9388;SDS011;4734;52.778;6.798;2022-12-29T01:07:58;8.25;;;6.00;;
9388;SDS011;4734;52.778;6.798;2022-12-29T01:10:43;5.33;;;4.43;;
9388;SDS011;4734;52.778;6.798;2022-12-29T01:13:29;5.20;;;4.70;;
9388;SDS011;4734;52.778;6.798;2022-12-29T01:16:15;7.97;;;5.90;;
9388;SDS011;4734;52.778;6.798;2022-12-29T01:19:00;6.53;;;5.70;;
9388;SDS011;4734;52.778;6.798;2022-12-29T01:21:46;6.43;;;5.70;;
9388;SDS011;4734;52.778;6.798;2022-12-29T01:24:32;6.87;;;5.70;;
9388;SDS011;4734;52.778;6.798;2022-12-29T01:27:18;6.33;;;5.13;;
9388;SDS011;4734;52.778;6.798;2022-12-29T01:30:05;5.50;;;5.00;;
9388;SDS011;4734;52.778;6.798;2022-12-29T01:32:52;5.87;;;5.27;;
9388;SDS011;4734;52.778;6.798;2022-12-29T01:35:37;5.63;;;5.13;;
9388;SDS011;4734;52.778;6.798;2022-12-29T01:38:23;5.17;;;4.67;;
9388;SDS011;4734;52.778;6.798;2022-12-29T01:41:09;5.90;;;5.37;;
9388;SDS011;4734;52.778;6.798;2022-12-29T01:43:57;5.67;;;5.17;;
9388;SDS011;4734;52.778;6.798;2022-12-29T01:46:45;6.00;;;5.50;;
9388;SDS011;4734;52.778;6.798;2022-12-29T01:49:34;7.10;;;5.43;;
9388;SDS011;4734;52.778;6.798;2022-12-29T01:52:20;5.53;;;5.03;;
9388;SDS011;4734;52.778;6.798;2022-12-29T01:55:07;6.10;;;5.50;;
9388;SDS011;4734;52.778;6.798;2022-12-29T01:57:55;6.03;;;5.23;;
9388;SDS011;4734;52.778;6.798;2022-12-29T02:00:45;7.03;;;5.03;;
9388;SDS011;4734;52.778;6.798;2022-12-29T02:03:33;5.37;;;4.87;;
9388;SDS011;4734;52.778;6.798;2022-12-29T02:06:21;6.13;;;4.20;;
9388;SDS011;4734;52.778;6.798;2022-12-29T02:09:07;4.60;;;4.20;;
9388;SDS011;4734;52.778;6.798;2022-12-29T02:11:52;4.80;;;4.30;;
9388;SDS011;4734;52.778;6.798;2022-12-29T02:14:38;5.20;;;4.50;;
9388;SDS011;4734;52.778;6.798;2022-12-29T02:17:26;4.60;;;4.20;;
9388;SDS011;4734;52.778;6.798;2022-12-29T02:24:09;6.13;;;3.50;;
9388;SDS011;4734;52.778;6.798;2022-12-29T02:30:36;4.00;;;3.60;;
9388;SDS011;4734;52.778;6.798;2022-12-29T02:33:31;4.27;;;3.63;;
9388;SDS011;4734;52.778;6.798;2022-12-29T02:36:26;5.07;;;3.90;;
9388;SDS011;4734;52.778;6.798;2022-12-29T02:39:23;4.30;;;3.90;;
9388;SDS011;4734;52.778;6.798;2022-12-29T02:42:14;4.27;;;3.87;;
9388;SDS011;4734;52.778;6.798;2022-12-29T02:45:12;4.50;;;3.63;;
9388;SDS011;4734;52.778;6.798;2022-12-29T02:48:04;4.30;;;3.53;;
9388;SDS011;4734;52.778;6.798;2022-12-29T02:50:58;3.80;;;3.37;;
9388;SDS011;4734;52.778;6.798;2022-12-29T02:53:46;4.67;;;3.70;;
9388;SDS011;4734;52.778;6.798;2022-12-29T02:56:50;4.10;;;3.50;;
9388;SDS011;4734;52.778;6.798;2022-12-29T02:59:36;5.35;;;3.90;;
9388;SDS011;4734;52.778;6.798;2022-12-29T03:02:27;6.37;;;3.60;;
9388;SDS011;4734;52.778;6.798;2022-12-29T03:05:30;5.30;;;3.20;;
9388;SDS011;4734;52.778;6.798;2022-12-29T03:08:31;5.07;;;2.80;;
9388;SDS011;4734;52.778;6.798;2022-12-29T03:11:24;4.45;;;2.92;;
9388;SDS011;4734;52.778;6.798;2022-12-29T03:14:32;3.00;;;2.67;;
9388;SDS011;4734;52.778;6.798;2022-12-29T03:17:46;3.25;;;2.65;;
9388;SDS011;4734;52.778;6.798;2022-12-29T03:20:38;4.03;;;2.70;;
9388;SDS011;4734;52.778;6.798;2022-12-29T03:23:30;3.87;;;2.80;;
9388;SDS011;4734;52.778;6.798;2022-12-29T03:26:18;3.00;;;2.80;;
9388;SDS011;4734;52.778;6.798;2022-12-29T03:29:05;3.27;;;2.87;;
9388;SDS011;4734;52.778;6.798;2022-12-29T03:31:53;3.00;;;2.53;;
9388;SDS011;4734;52.778;6.798;2022-12-29T03:34:40;2.87;;;2.50;;
9388;SDS011;4734;52.778;6.798;2022-12-29T03:37:29;3.30;;;2.57;;
9388;SDS011;4734;52.778;6.798;2022-12-29T03:40:20;2.50;;;2.22;;
9388;SDS011;4734;52.778;6.798;2022-12-29T03:43:06;3.55;;;2.65;;
9388;SDS011;4734;52.778;6.798;2022-12-29T03:45:52;2.80;;;2.60;;
9388;SDS011;4734;52.778;6.798;2022-12-29T03:48:38;2.78;;;2.35;;
9388;SDS011;4734;52.778;6.798;2022-12-29T03:51:24;4.70;;;2.20;;
9388;SDS011;4734;52.778;6.798;2022-12-29T03:54:11;2.58;;;2.08;;
9388;SDS011;4734;52.778;6.798;2022-12-29T03:56:56;2.70;;;2.40;;
9388;SDS011;4734;52.778;6.798;2022-12-29T03:59:42;3.87;;;2.10;;
9388;SDS011;4734;52.778;6.798;2022-12-29T04:02:28;4.93;;;2.30;;
9388;SDS011;4734;52.778;6.798;2022-12-29T04:05:13;5.88;;;2.28;;
9388;SDS011;4734;52.778;6.798;2022-12-29T04:07:59;2.97;;;2.17;;
9388;SDS011;4734;52.778;6.798;2022-12-29T04:10:45;3.97;;;1.90;;
9388;SDS011;4734;52.778;6.798;2022-12-29T04:13:32;2.87;;;1.73;;
9388;SDS011;4734;52.778;6.798;2022-12-29T04:16:18;4.35;;;1.88;;
9388;SDS011;4734;52.778;6.798;2022-12-29T04:19:03;2.72;;;1.67;;
9388;SDS011;4734;52.778;6.798;2022-12-29T04:21:49;4.93;;;1.80;;
9388;SDS011;4734;52.778;6.798;2022-12-29T04:24:35;2.60;;;1.77;;
9388;SDS011;4734;52.778;6.798;2022-12-29T04:27:22;2.73;;;1.63;;
9388;SDS011;4734;52.778;6.798;2022-12-29T04:30:08;1.60;;;1.40;;
9388;SDS011;4734;52.778;6.798;2022-12-29T04:32:54;2.33;;;1.52;;
9388;SDS011;4734;52.778;6.798;2022-12-29T04:35:40;3.83;;;1.53;;
9388;SDS011;4734;52.778;6.798;2022-12-29T04:38:27;1.57;;;1.20;;
9388;SDS011;4734;52.778;6.798;2022-12-29T04:41:12;3.35;;;1.52;;
9388;SDS011;4734;52.778;6.798;2022-12-29T04:43:59;2.53;;;1.20;;
9388;SDS011;4734;52.778;6.798;2022-12-29T04:46:45;3.03;;;1.30;;
9388;SDS011;4734;52.778;6.798;2022-12-29T04:49:30;2.30;;;1.40;;
9388;SDS011;4734;52.778;6.798;2022-12-29T04:52:16;3.55;;;1.45;;
9388;SDS011;4734;52.778;6.798;2022-12-29T04:55:01;3.23;;;1.53;;
9388;SDS011;4734;52.778;6.798;2022-12-29T04:57:47;1.67;;;1.20;;
9388;SDS011;4734;52.778;6.798;2022-12-29T05:00:34;6.63;;;1.70;;
9388;SDS011;4734;52.778;6.798;2022-12-29T05:03:20;2.77;;;1.50;;
9388;SDS011;4734;52.778;6.798;2022-12-29T05:06:06;2.40;;;1.30;;
9388;SDS011;4734;52.778;6.798;2022-12-29T05:08:51;2.00;;;1.30;;
9388;SDS011;4734;52.778;6.798;2022-12-29T05:11:37;3.08;;;1.50;;
9388;SDS011;4734;52.778;6.798;2022-12-29T05:14:22;2.80;;;1.38;;
9388;SDS011;4734;52.778;6.798;2022-12-29T05:17:09;2.83;;;1.35;;
9388;SDS011;4734;52.778;6.798;2022-12-29T05:19:54;3.42;;;1.60;;
9388;SDS011;4734;52.778;6.798;2022-12-29T05:22:40;7.10;;;1.77;;
9388;SDS011;4734;52.778;6.798;2022-12-29T05:25:26;2.00;;;1.57;;
9388;SDS011;4734;52.778;6.798;2022-12-29T05:28:11;4.15;;;1.63;;
9388;SDS011;4734;52.778;6.798;2022-12-29T05:30:57;3.90;;;1.57;;
9388;SDS011;4734;52.778;6.798;2022-12-29T05:33:44;4.30;;;1.60;;
9388;SDS011;4734;52.778;6.798;2022-12-29T05:36:30;5.57;;;1.60;;
9388;SDS011;4734;52.778;6.798;2022-12-29T05:39:16;3.47;;;1.40;;
9388;SDS011;4734;52.778;6.798;2022-12-29T05:42:01;4.95;;;1.90;;
9388;SDS011;4734;52.778;6.798;2022-12-29T05:44:47;2.83;;;1.67;;
9388;SDS011;4734;52.778;6.798;2022-12-29T05:47:35;2.63;;;1.60;;
9388;SDS011;4734;52.778;6.798;2022-12-29T05:50:22;4.27;;;1.50;;
9388;SDS011;4734;52.778;6.798;2022-12-29T05:53:08;2.22;;;1.30;;
9388;SDS011;4734;52.778;6.798;2022-12-29T05:55:53;3.05;;;1.33;;
9388;SDS011;4734;52.778;6.798;2022-12-29T05:58:39;3.87;;;1.67;;
9388;SDS011;4734;52.778;6.798;2022-12-29T06:01:24;3.23;;;1.37;;
9388;SDS011;4734;52.778;6.798;2022-12-29T06:04:10;3.20;;;1.70;;
9388;SDS011;4734;52.778;6.798;2022-12-29T06:06:57;2.63;;;1.43;;
9388;SDS011;4734;52.778;6.798;2022-12-29T06:09:42;3.57;;;1.37;;
9388;SDS011;4734;52.778;6.798;2022-12-29T06:12:28;2.27;;;1.50;;
9388;SDS011;4734;52.778;6.798;2022-12-29T06:15:13;4.27;;;1.40;;
9388;SDS011;4734;52.778;6.798;2022-12-29T06:17:59;5.50;;;1.93;;
9388;SDS011;4734;52.778;6.798;2022-12-29T06:20:45;3.33;;;1.50;;
9388;SDS011;4734;52.778;6.798;2022-12-29T06:23:32;4.10;;;1.67;;
9388;SDS011;4734;52.778;6.798;2022-12-29T06:26:17;3.33;;;1.30;;
9388;SDS011;4734;52.778;6.798;2022-12-29T06:29:03;4.70;;;1.50;;
9388;SDS011;4734;52.778;6.798;2022-12-29T06:31:48;3.20;;;1.63;;
9388;SDS011;4734;52.778;6.798;2022-12-29T06:34:35;6.85;;;1.52;;
9388;SDS011;4734;52.778;6.798;2022-12-29T06:37:20;4.03;;;1.37;;
9388;SDS011;4734;52.778;6.798;2022-12-29T06:40:07;4.63;;;1.50;;
9388;SDS011;4734;52.778;6.798;2022-12-29T06:42:54;7.07;;;1.57;;
9388;SDS011;4734;52.778;6.798;2022-12-29T06:45:39;6.18;;;1.80;;
9388;SDS011;4734;52.778;6.798;2022-12-29T06:48:25;5.18;;;1.90;;
9388;SDS011;4734;52.778;6.798;2022-12-29T06:51:11;5.97;;;1.70;;
9388;SDS011;4734;52.778;6.798;2022-12-29T06:53:56;4.30;;;1.60;;
9388;SDS011;4734;52.778;6.798;2022-12-29T06:56:43;8.48;;;2.03;;
9388;SDS011;4734;52.778;6.798;2022-12-29T06:59:29;6.07;;;1.83;;
9388;SDS011;4734;52.778;6.798;2022-12-29T07:02:14;5.18;;;1.60;;
9388;SDS011;4734;52.778;6.798;2022-12-29T07:05:01;8.68;;;1.92;;
9388;SDS011;4734;52.778;6.798;2022-12-29T07:07:47;5.60;;;1.53;;
9388;SDS011;4734;52.778;6.798;2022-12-29T07:10:32;5.63;;;1.97;;
9388;SDS011;4734;52.778;6.798;2022-12-29T07:13:19;7.00;;;1.70;;
9388;SDS011;4734;52.778;6.798;2022-12-29T07:16:05;7.20;;;2.15;;
9388;SDS011;4734;52.778;6.798;2022-12-29T07:18:51;6.07;;;1.90;;
9388;SDS011;4734;52.778;6.798;2022-12-29T07:21:37;7.17;;;2.30;;
9388;SDS011;4734;52.778;6.798;2022-12-29T07:24:22;10.02;;;2.55;;
9388;SDS011;4734;52.778;6.798;2022-12-29T07:27:09;8.47;;;1.67;;
9388;SDS011;4734;52.778;6.798;2022-12-29T07:29:56;8.83;;;1.87;;
9388;SDS011;4734;52.778;6.798;2022-12-29T07:32:42;8.03;;;2.23;;
9388;SDS011;4734;52.778;6.798;2022-12-29T07:35:27;9.80;;;2.37;;
9388;SDS011;4734;52.778;6.798;2022-12-29T07:38:13;8.33;;;2.60;;
9388;SDS011;4734;52.778;6.798;2022-12-29T07:40:58;8.00;;;1.87;;
9388;SDS011;4734;52.778;6.798;2022-12-29T07:43:46;6.60;;;1.90;;
9388;SDS011;4734;52.778;6.798;2022-12-29T07:46:33;11.20;;;2.70;;
9388;SDS011;4734;52.778;6.798;2022-12-29T07:49:19;8.97;;;2.60;;
9388;SDS011;4734;52.778;6.798;2022-12-29T07:52:04;8.23;;;2.37;;
9388;SDS011;4734;52.778;6.798;2022-12-29T07:54:50;6.27;;;2.00;;
9388;SDS011;4734;52.778;6.798;2022-12-29T07:57:36;5.40;;;2.10;;
9388;SDS011;4734;52.778;6.798;2022-12-29T08:00:21;5.90;;;2.10;;
9388;SDS011;4734;52.778;6.798;2022-12-29T08:03:09;5.57;;;2.33;;
9388;SDS011;4734;52.778;6.798;2022-12-29T08:05:54;4.17;;;1.80;;
9388;SDS011;4734;52.778;6.798;2022-12-29T08:08:41;6.93;;;2.23;;
9388;SDS011;4734;52.778;6.798;2022-12-29T08:11:27;7.00;;;2.20;;
9388;SDS011;4734;52.778;6.798;2022-12-29T08:14:12;11.87;;;2.33;;
9388;SDS011;4734;52.778;6.798;2022-12-29T08:16:58;7.43;;;2.07;;
9388;SDS011;4734;52.778;6.798;2022-12-29T08:19:45;7.93;;;2.30;;
9388;SDS011;4734;52.778;6.798;2022-12-29T08:22:31;10.33;;;2.40;;
9388;SDS011;4734;52.778;6.798;2022-12-29T08:25:17;8.15;;;2.33;;
9388;SDS011;4734;52.778;6.798;2022-12-29T08:28:03;6.23;;;2.30;;
9388;SDS011;4734;52.778;6.798;2022-12-29T08:30:48;8.47;;;2.03;;
9388;SDS011;4734;52.778;6.798;2022-12-29T08:33:34;7.57;;;2.30;;
9388;SDS011;4734;52.778;6.798;2022-12-29T08:36:21;7.50;;;2.05;;
9388;SDS011;4734;52.778;6.798;2022-12-29T08:39:06;7.60;;;2.13;;
9388;SDS011;4734;52.778;6.798;2022-12-29T08:41:52;9.00;;;2.30;;
9388;SDS011;4734;52.778;6.798;2022-12-29T08:44:38;6.50;;;2.17;;
9388;SDS011;4734;52.778;6.798;2022-12-29T08:47:23;5.72;;;2.25;;
9388;SDS011;4734;52.778;6.798;2022-12-29T08:50:09;5.83;;;2.13;;
9388;SDS011;4734;52.778;6.798;2022-12-29T08:52:56;7.20;;;1.90;;
9388;SDS011;4734;52.778;6.798;2022-12-29T08:55:41;4.77;;;1.77;;
9388;SDS011;4734;52.778;6.798;2022-12-29T08:58:27;9.63;;;2.37;;
9388;SDS011;4734;52.778;6.798;2022-12-29T09:01:13;7.20;;;1.83;;
9388;SDS011;4734;52.778;6.798;2022-12-29T09:03:58;5.80;;;1.83;;
9388;SDS011;4734;52.778;6.798;2022-12-29T09:06:44;5.50;;;2.25;;
9388;SDS011;4734;52.778;6.798;2022-12-29T09:09:31;4.37;;;1.70;;
9388;SDS011;4734;52.778;6.798;2022-12-29T09:12:16;4.07;;;1.70;;
9388;SDS011;4734;52.778;6.798;2022-12-29T09:15:03;6.10;;;2.00;;
9388;SDS011;4734;52.778;6.798;2022-12-29T09:17:49;8.67;;;1.83;;
9388;SDS011;4734;52.778;6.798;2022-12-29T09:20:34;7.00;;;1.90;;
9388;SDS011;4734;52.778;6.798;2022-12-29T09:23:20;7.18;;;1.80;;
9388;SDS011;4734;52.778;6.798;2022-12-29T09:26:07;5.80;;;1.77;;
9388;SDS011;4734;52.778;6.798;2022-12-29T09:28:53;5.90;;;2.10;;
9388;SDS011;4734;52.778;6.798;2022-12-29T09:31:39;6.13;;;1.70;;
9388;SDS011;4734;52.778;6.798;2022-12-29T09:34:24;5.27;;;1.83;;
9388;SDS011;4734;52.778;6.798;2022-12-29T09:37:10;5.40;;;1.60;;
9388;SDS011;4734;52.778;6.798;2022-12-29T09:39:56;5.80;;;2.50;;
9388;SDS011;4734;52.778;6.798;2022-12-29T09:42:44;4.87;;;2.20;;
9388;SDS011;4734;52.778;6.798;2022-12-29T09:45:39;8.70;;;2.00;;
9388;SDS011;4734;52.778;6.798;2022-12-29T09:48:29;5.57;;;2.00;;
9388;SDS011;4734;52.778;6.798;2022-12-29T09:51:19;7.57;;;1.90;;
9388;SDS011;4734;52.778;6.798;2022-12-29T09:54:16;8.63;;;2.30;;
9388;SDS011;4734;52.778;6.798;2022-12-29T09:57:18;5.77;;;2.00;;
9388;SDS011;4734;52.778;6.798;2022-12-29T10:00:10;6.50;;;2.20;;
9388;SDS011;4734;52.778;6.798;2022-12-29T10:02:58;7.23;;;2.10;;
9388;SDS011;4734;52.778;6.798;2022-12-29T10:05:48;8.50;;;2.20;;
9388;SDS011;4734;52.778;6.798;2022-12-29T10:08:41;6.70;;;1.73;;
9388;SDS011;4734;52.778;6.798;2022-12-29T10:11:33;7.50;;;2.30;;
9388;SDS011;4734;52.778;6.798;2022-12-29T10:14:35;7.43;;;2.40;;
9388;SDS011;4734;52.778;6.798;2022-12-29T10:17:36;7.30;;;2.30;;
9388;SDS011;4734;52.778;6.798;2022-12-29T10:20:28;7.87;;;2.13;;
9388;SDS011;4734;52.778;6.798;2022-12-29T10:23:22;9.07;;;2.50;;
9388;SDS011;4734;52.778;6.798;2022-12-29T10:26:13;8.80;;;2.53;;
9388;SDS011;4734;52.778;6.798;2022-12-29T10:29:02;9.40;;;2.30;;
9388;SDS011;4734;52.778;6.798;2022-12-29T10:31:50;9.37;;;2.53;;
9388;SDS011;4734;52.778;6.798;2022-12-29T10:34:44;10.63;;;2.33;;
9388;SDS011;4734;52.778;6.798;2022-12-29T10:37:34;5.27;;;2.13;;
9388;SDS011;4734;52.778;6.798;2022-12-29T10:40:26;6.93;;;2.10;;
9388;SDS011;4734;52.778;6.798;2022-12-29T10:43:22;8.37;;;1.93;;
9388;SDS011;4734;52.778;6.798;2022-12-29T10:46:11;9.50;;;2.40;;
9388;SDS011;4734;52.778;6.798;2022-12-29T10:48:58;6.13;;;2.07;;
9388;SDS011;4734;52.778;6.798;2022-12-29T10:51:47;8.73;;;2.80;;
9388;SDS011;4734;52.778;6.798;2022-12-29T10:54:37;10.43;;;2.30;;
9388;SDS011;4734;52.778;6.798;2022-12-29T10:57:31;9.00;;;2.70;;
9388;SDS011;4734;52.778;6.798;2022-12-29T11:00:21;8.73;;;2.27;;
9388;SDS011;4734;52.778;6.798;2022-12-29T11:03:29;9.77;;;2.90;;
9388;SDS011;4734;52.778;6.798;2022-12-29T11:06:28;7.77;;;2.33;;
9388;SDS011;4734;52.778;6.798;2022-12-29T11:09:16;6.77;;;2.20;;
9388;SDS011;4734;52.778;6.798;2022-12-29T11:12:23;13.27;;;2.90;;
9388;SDS011;4734;52.778;6.798;2022-12-29T11:15:11;5.83;;;2.37;;
9388;SDS011;4734;52.778;6.798;2022-12-29T11:17:58;8.43;;;2.80;;
9388;SDS011;4734;52.778;6.798;2022-12-29T11:20:44;8.67;;;2.20;;
9388;SDS011;4734;52.778;6.798;2022-12-29T11:23:31;6.57;;;1.97;;
9388;SDS011;4734;52.778;6.798;2022-12-29T11:26:19;9.00;;;2.37;;
9388;SDS011;4734;52.778;6.798;2022-12-29T11:29:23;11.80;;;2.07;;
9388;SDS011;4734;52.778;6.798;2022-12-29T11:32:17;6.00;;;2.00;;
9388;SDS011;4734;52.778;6.798;2022-12-29T11:35:04;7.37;;;2.20;;
9388;SDS011;4734;52.778;6.798;2022-12-29T11:37:53;8.38;;;1.98;;
9388;SDS011;4734;52.778;6.798;2022-12-29T11:40:41;10.70;;;2.23;;
9388;SDS011;4734;52.778;6.798;2022-12-29T11:43:29;6.18;;;2.05;;
9388;SDS011;4734;52.778;6.798;2022-12-29T11:46:18;6.68;;;2.38;;
9388;SDS011;4734;52.778;6.798;2022-12-29T11:49:10;5.68;;;2.13;;
9388;SDS011;4734;52.778;6.798;2022-12-29T11:51:58;9.68;;;2.40;;
9388;SDS011;4734;52.778;6.798;2022-12-29T11:54:44;8.33;;;2.50;;
9388;SDS011;4734;52.778;6.798;2022-12-29T11:57:30;11.18;;;2.90;;
9388;SDS011;4734;52.778;6.798;2022-12-29T12:00:20;5.90;;;2.17;;
9388;SDS011;4734;52.778;6.798;2022-12-29T12:03:10;8.47;;;3.07;;
9388;SDS011;4734;52.778;6.798;2022-12-29T12:06:00;9.97;;;2.57;;
9388;SDS011;4734;52.778;6.798;2022-12-29T12:08:48;14.10;;;3.17;;
9388;SDS011;4734;52.778;6.798;2022-12-29T12:11:40;9.73;;;2.90;;
9388;SDS011;4734;52.778;6.798;2022-12-29T12:14:30;8.30;;;2.47;;
9388;SDS011;4734;52.778;6.798;2022-12-29T12:17:23;9.70;;;2.43;;
9388;SDS011;4734;52.778;6.798;2022-12-29T12:20:20;15.90;;;3.17;;
9388;SDS011;4734;52.778;6.798;2022-12-29T12:23:13;12.68;;;3.08;;
9388;SDS011;4734;52.778;6.798;2022-12-29T12:26:09;17.00;;;3.55;;
9388;SDS011;4734;52.778;6.798;2022-12-29T12:28:58;12.68;;;2.83;;
9388;SDS011;4734;52.778;6.798;2022-12-29T12:31:50;11.77;;;2.80;;
9388;SDS011;4734;52.778;6.798;2022-12-29T12:34:42;10.67;;;2.90;;
9388;SDS011;4734;52.778;6.798;2022-12-29T12:40:53;7.30;;;2.57;;
9388;SDS011;4734;52.778;6.798;2022-12-29T12:43:50;8.38;;;2.22;;
9388;SDS011;4734;52.778;6.798;2022-12-29T12:46:48;7.50;;;1.80;;
9388;SDS011;4734;52.778;6.798;2022-12-29T12:50:05;5.97;;;1.67;;
9388;SDS011;4734;52.778;6.798;2022-12-29T12:56:24;6.30;;;2.88;;
9388;SDS011;4734;52.778;6.798;2022-12-29T12:59:30;5.43;;;2.03;;
9388;SDS011;4734;52.778;6.798;2022-12-29T13:02:26;9.80;;;2.35;;
9388;SDS011;4734;52.778;6.798;2022-12-29T13:05:25;8.77;;;2.67;;
9388;SDS011;4734;52.778;6.798;2022-12-29T13:08:27;11.80;;;3.03;;
9388;SDS011;4734;52.778;6.798;2022-12-29T13:11:28;12.23;;;3.10;;
9388;SDS011;4734;52.778;6.798;2022-12-29T13:14:31;13.75;;;3.33;;
9388;SDS011;4734;52.778;6.798;2022-12-29T13:17:26;15.93;;;3.42;;
9388;SDS011;4734;52.778;6.798;2022-12-29T13:20:24;12.18;;;3.13;;
9388;SDS011;4734;52.778;6.798;2022-12-29T13:23:23;15.05;;;3.10;;
9388;SDS011;4734;52.778;6.798;2022-12-29T13:26:17;14.80;;;3.28;;
9388;SDS011;4734;52.778;6.798;2022-12-29T13:29:06;10.50;;;2.70;;
9388;SDS011;4734;52.778;6.798;2022-12-29T13:32:05;16.65;;;3.30;;
9388;SDS011;4734;52.778;6.798;2022-12-29T13:35:10;16.37;;;2.90;;
9388;SDS011;4734;52.778;6.798;2022-12-29T13:38:10;10.27;;;2.90;;
9388;SDS011;4734;52.778;6.798;2022-12-29T13:40:59;8.15;;;2.33;;
9388;SDS011;4734;52.778;6.798;2022-12-29T13:43:49;7.47;;;2.30;;
9388;SDS011;4734;52.778;6.798;2022-12-29T13:46:37;10.70;;;3.10;;
9388;SDS011;4734;52.778;6.798;2022-12-29T13:49:25;9.48;;;2.70;;
9388;SDS011;4734;52.778;6.798;2022-12-29T13:52:13;11.97;;;3.23;;
9388;SDS011;4734;52.778;6.798;2022-12-29T13:55:18;12.48;;;2.53;;
9388;SDS011;4734;52.778;6.798;2022-12-29T13:58:12;9.52;;;2.80;;
9388;SDS011;4734;52.778;6.798;2022-12-29T14:01:08;9.43;;;2.80;;
9388;SDS011;4734;52.778;6.798;2022-12-29T14:04:02;9.70;;;2.43;;
9388;SDS011;4734;52.778;6.798;2022-12-29T14:06:58;9.00;;;2.97;;
9388;SDS011;4734;52.778;6.798;2022-12-29T14:09:47;10.23;;;3.05;;
9388;SDS011;4734;52.778;6.798;2022-12-29T14:12:37;12.40;;;2.42;;
9388;SDS011;4734;52.778;6.798;2022-12-29T14:15:25;11.20;;;2.63;;
9388;SDS011;4734;52.778;6.798;2022-12-29T14:18:13;10.93;;;2.80;;
9388;SDS011;4734;52.778;6.798;2022-12-29T14:21:03;6.30;;;2.75;;
9388;SDS011;4734;52.778;6.798;2022-12-29T14:24:00;7.47;;;3.10;;
9388;SDS011;4734;52.778;6.798;2022-12-29T14:27:50;11.45;;;3.08;;
9388;SDS011;4734;52.778;6.798;2022-12-29T14:30:48;11.43;;;2.88;;
9388;SDS011;4734;52.778;6.798;2022-12-29T14:33:35;12.68;;;3.15;;
9388;SDS011;4734;52.778;6.798;2022-12-29T14:36:21;13.55;;;3.10;;
9388;SDS011;4734;52.778;6.798;2022-12-29T14:39:26;11.40;;;3.15;;
9388;SDS011;4734;52.778;6.798;2022-12-29T14:42:19;9.80;;;2.88;;
9388;SDS011;4734;52.778;6.798;2022-12-29T14:45:08;8.63;;;3.00;;
9388;SDS011;4734;52.778;6.798;2022-12-29T14:48:22;11.75;;;2.65;;
9388;SDS011;4734;52.778;6.798;2022-12-29T14:51:19;10.82;;;2.92;;
9388;SDS011;4734;52.778;6.798;2022-12-29T14:57:39;10.57;;;2.97;;
9388;SDS011;4734;52.778;6.798;2022-12-29T15:00:29;9.30;;;2.75;;
9388;SDS011;4734;52.778;6.798;2022-12-29T15:03:18;11.60;;;3.35;;
9388;SDS011;4734;52.778;6.798;2022-12-29T15:06:07;10.50;;;2.65;;
9388;SDS011;4734;52.778;6.798;2022-12-29T15:09:01;9.20;;;2.20;;
9388;SDS011;4734;52.778;6.798;2022-12-29T15:11:52;12.53;;;2.53;;
9388;SDS011;4734;52.778;6.798;2022-12-29T15:14:47;7.57;;;2.47;;
9388;SDS011;4734;52.778;6.798;2022-12-29T15:17:37;7.03;;;2.43;;
9388;SDS011;4734;52.778;6.798;2022-12-29T15:20:24;11.93;;;2.47;;
9388;SDS011;4734;52.778;6.798;2022-12-29T15:23:12;11.00;;;2.67;;
9388;SDS011;4734;52.778;6.798;2022-12-29T15:25:59;8.10;;;3.00;;
9388;SDS011;4734;52.778;6.798;2022-12-29T15:28:47;9.23;;;2.90;;
9388;SDS011;4734;52.778;6.798;2022-12-29T15:31:34;11.63;;;2.87;;
9388;SDS011;4734;52.778;6.798;2022-12-29T15:34:33;14.63;;;3.70;;
9388;SDS011;4734;52.778;6.798;2022-12-29T15:37:20;9.83;;;2.80;;
9388;SDS011;4734;52.778;6.798;2022-12-29T15:40:19;8.47;;;2.60;;
9388;SDS011;4734;52.778;6.798;2022-12-29T15:43:10;9.70;;;2.80;;
9388;SDS011;4734;52.778;6.798;2022-12-29T15:46:05;9.33;;;2.60;;
9388;SDS011;4734;52.778;6.798;2022-12-29T15:48:51;8.73;;;3.37;;
9388;SDS011;4734;52.778;6.798;2022-12-29T15:51:38;11.53;;;3.10;;
9388;SDS011;4734;52.778;6.798;2022-12-29T15:54:25;8.33;;;3.03;;
9388;SDS011;4734;52.778;6.798;2022-12-29T15:57:19;9.40;;;2.77;;
9388;SDS011;4734;52.778;6.798;2022-12-29T16:00:20;10.30;;;2.87;;
9388;SDS011;4734;52.778;6.798;2022-12-29T16:03:11;13.60;;;3.20;;
9388;SDS011;4734;52.778;6.798;2022-12-29T16:06:06;9.87;;;3.37;;
9388;SDS011;4734;52.778;6.798;2022-12-29T16:08:56;6.27;;;2.50;;
9388;SDS011;4734;52.778;6.798;2022-12-29T16:11:43;8.53;;;2.53;;
9388;SDS011;4734;52.778;6.798;2022-12-29T16:14:32;8.30;;;2.80;;
9388;SDS011;4734;52.778;6.798;2022-12-29T16:17:22;6.77;;;2.67;;
9388;SDS011;4734;52.778;6.798;2022-12-29T16:20:14;7.03;;;2.87;;
9388;SDS011;4734;52.778;6.798;2022-12-29T16:23:02;8.50;;;2.80;;
9388;SDS011;4734;52.778;6.798;2022-12-29T16:25:49;6.67;;;3.47;;
9388;SDS011;4734;52.778;6.798;2022-12-29T16:28:39;11.03;;;3.17;;
9388;SDS011;4734;52.778;6.798;2022-12-29T16:31:31;6.00;;;2.90;;
9388;SDS011;4734;52.778;6.798;2022-12-29T16:34:22;9.03;;;3.20;;
9388;SDS011;4734;52.778;6.798;2022-12-29T16:37:24;11.80;;;3.93;;
9388;SDS011;4734;52.778;6.798;2022-12-29T16:40:23;7.00;;;2.73;;
9388;SDS011;4734;52.778;6.798;2022-12-29T16:43:18;9.47;;;3.10;;
9388;SDS011;4734;52.778;6.798;2022-12-29T16:46:15;6.00;;;2.63;;
9388;SDS011;4734;52.778;6.798;2022-12-29T16:49:06;8.50;;;2.37;;
9388;SDS011;4734;52.778;6.798;2022-12-29T16:52:01;5.57;;;2.70;;
9388;SDS011;4734;52.778;6.798;2022-12-29T16:54:56;4.67;;;2.20;;
9388;SDS011;4734;52.778;6.798;2022-12-29T16:57:44;4.53;;;1.93;;
9388;SDS011;4734;52.778;6.798;2022-12-29T17:00:34;6.60;;;1.80;;
9388;SDS011;4734;52.778;6.798;2022-12-29T17:03:20;5.20;;;1.90;;
9388;SDS011;4734;52.778;6.798;2022-12-29T17:06:08;3.80;;;1.90;;
9388;SDS011;4734;52.778;6.798;2022-12-29T17:08:58;4.73;;;2.00;;
9388;SDS011;4734;52.778;6.798;2022-12-29T17:11:45;5.77;;;1.80;;
9388;SDS011;4734;52.778;6.798;2022-12-29T17:14:43;5.13;;;2.20;;
9388;SDS011;4734;52.778;6.798;2022-12-29T17:17:32;6.03;;;2.60;;
9388;SDS011;4734;52.778;6.798;2022-12-29T17:20:20;5.53;;;2.60;;
9388;SDS011;4734;52.778;6.798;2022-12-29T17:23:11;4.23;;;2.30;;
9388;SDS011;4734;52.778;6.798;2022-12-29T17:25:59;9.83;;;2.70;;
9388;SDS011;4734;52.778;6.798;2022-12-29T17:28:45;6.70;;;2.70;;
9388;SDS011;4734;52.778;6.798;2022-12-29T17:31:31;5.53;;;3.17;;
9388;SDS011;4734;52.778;6.798;2022-12-29T17:34:18;6.53;;;3.43;;
9388;SDS011;4734;52.778;6.798;2022-12-29T17:37:08;7.17;;;3.17;;
9388;SDS011;4734;52.778;6.798;2022-12-29T17:40:05;10.17;;;4.23;;
9388;SDS011;4734;52.778;6.798;2022-12-29T17:42:54;6.40;;;4.17;;
9388;SDS011;4734;52.778;6.798;2022-12-29T17:45:42;5.80;;;3.90;;
9388;SDS011;4734;52.778;6.798;2022-12-29T17:48:28;6.30;;;3.80;;
9388;SDS011;4734;52.778;6.798;2022-12-29T17:51:15;6.73;;;3.43;;